Time;durP1;ratioP1;P1;durP2;ratioP2;P2;SDS_P1;SDS_P2;PMS_P1;PMS_P2;Temp;Humidity;BMP_temperature;BMP_pressure;BME280_temperature;BME280_humidity;BME280_pressure;Samples;Min_cycle;Max_cycle;Signal;HPM_P1;HPM_P2
2021/07/16 00:01:59;;;;;;;19.00;6.25;;;17.20;99.90;;;;;;5070368;28;20068;-63
2021/07/16 00:04:25;;;;;;;14.98;6.35;;;17.10;99.90;;;;;;5070067;28;20033;-63
2021/07/16 00:06:51;;;;;;;18.25;6.05;;;17.10;99.90;;;;;;5069174;28;20040;-63
2021/07/16 00:09:18;;;;;;;14.75;5.60;;;17.10;99.90;;;;;;5069277;28;20024;-63
2021/07/16 00:11:44;;;;;;;18.48;6.20;;;17.20;99.90;;;;;;5070279;28;20571;-63
2021/07/16 00:14:10;;;;;;;20.08;7.03;;;17.00;99.90;;;;;;5070133;28;20128;-63
2021/07/16 00:16:38;;;;;;;17.25;5.75;;;17.00;99.90;;;;;;5070230;28;20032;-63
2021/07/16 00:19:04;;;;;;;21.13;6.82;;;17.00;99.90;;;;;;5070052;28;20039;-63
2021/07/16 00:21:29;;;;;;;16.55;5.88;;;17.00;99.90;;;;;;5069872;28;20119;-63
2021/07/16 00:23:55;;;;;;;17.75;6.03;;;17.00;99.90;;;;;;5070377;28;20036;-63
2021/07/16 00:26:21;;;;;;;19.35;5.90;;;16.90;99.90;;;;;;5068745;28;20048;-63
2021/07/16 00:28:47;;;;;;;19.35;6.68;;;16.90;99.90;;;;;;5070108;28;20435;-63
2021/07/16 00:31:13;;;;;;;20.80;6.70;;;17.00;99.90;;;;;;5070264;28;20068;-63
2021/07/16 00:33:39;;;;;;;17.80;5.97;;;16.90;99.90;;;;;;5070007;28;20040;-63
2021/07/16 00:36:05;;;;;;;16.40;5.82;;;16.90;99.90;;;;;;5067716;28;20033;-63
2021/07/16 00:38:31;;;;;;;17.90;6.93;;;16.90;99.90;;;;;;5068197;28;20236;-63
2021/07/16 00:40:56;;;;;;;22.10;6.85;;;16.90;99.90;;;;;;5070138;28;20036;-63
2021/07/16 00:43:23;;;;;;;17.33;6.68;;;16.90;99.90;;;;;;5069977;28;20048;-63
2021/07/16 00:45:49;;;;;;;16.63;6.07;;;16.90;99.90;;;;;;5071664;28;20105;-63
2021/07/16 00:48:15;;;;;;;21.02;6.20;;;16.90;99.90;;;;;;5071794;28;20086;-63
2021/07/16 00:50:42;;;;;;;18.95;6.65;;;16.80;99.90;;;;;;5070942;28;20036;-63
2021/07/16 00:53:14;;;;;;;20.45;6.05;;;16.80;99.90;;;;;;5070326;28;20028;-63
2021/07/16 00:55:42;;;;;;;15.85;5.60;;;16.80;99.90;;;;;;5079275;28;20371;-63
2021/07/16 00:58:10;;;;;;;15.68;5.15;;;16.80;99.90;;;;;;5070782;28;20064;-63
2021/07/16 01:00:37;;;;;;;22.60;6.75;;;16.90;99.90;;;;;;5069714;28;20032;-63
2021/07/16 01:03:03;;;;;;;19.17;6.07;;;16.90;99.90;;;;;;5069753;28;20067;-63
2021/07/16 01:05:31;;;;;;;18.83;5.57;;;16.90;99.90;;;;;;5072613;28;20075;-63
2021/07/16 01:07:57;;;;;;;19.52;5.38;;;16.90;99.90;;;;;;5072977;28;20037;-63
2021/07/16 01:10:24;;;;;;;18.15;5.53;;;16.90;99.90;;;;;;5070633;28;20063;-63
2021/07/16 01:12:51;;;;;;;17.85;5.53;;;16.80;99.90;;;;;;5070326;28;20052;-63
2021/07/16 01:15:20;;;;;;;16.05;5.43;;;16.80;99.90;;;;;;5071868;28;20378;-63
2021/07/16 01:17:46;;;;;;;19.13;5.75;;;16.80;99.90;;;;;;5071238;28;20119;-63
2021/07/16 01:20:17;;;;;;;16.85;5.20;;;16.80;99.90;;;;;;5073075;28;20395;-63
2021/07/16 01:22:45;;;;;;;14.93;5.05;;;16.80;99.90;;;;;;5073061;28;20068;-63
2021/07/16 01:25:31;;;;;;;16.00;5.57;;;16.80;99.90;;;;;;5073329;28;20097;-63
2021/07/16 01:27:59;;;;;;;18.80;5.57;;;16.80;99.90;;;;;;5053136;28;20065;-63
2021/07/16 01:30:28;;;;;;;22.05;5.65;;;16.80;99.90;;;;;;5067096;28;20044;-63
2021/07/16 01:32:54;;;;;;;17.35;5.57;;;16.70;99.90;;;;;;5072874;28;20064;-63
2021/07/16 01:35:22;;;;;;;15.98;5.32;;;16.60;99.90;;;;;;5071612;28;20041;-63
2021/07/16 01:37:48;;;;;;;18.05;4.68;;;16.60;99.90;;;;;;5072519;28;20060;-63
2021/07/16 01:40:19;;;;;;;14.73;4.47;;;16.60;99.90;;;;;;5072406;28;20044;-63
2021/07/16 01:42:48;;;;;;;17.42;5.32;;;16.60;99.90;;;;;;5072775;28;20086;-63
2021/07/16 01:45:20;;;;;;;18.63;5.00;;;16.60;99.90;;;;;;5072495;28;20089;-63
2021/07/16 01:47:51;;;;;;;18.23;4.22;;;16.60;99.90;;;;;;5072393;28;20044;-63
2021/07/16 01:50:17;;;;;;;17.30;4.72;;;16.60;99.90;;;;;;5069967;28;20070;-63
2021/07/16 01:52:47;;;;;;;18.60;5.50;;;16.60;99.90;;;;;;5070932;28;20044;-63
2021/07/16 01:55:14;;;;;;;19.65;5.35;;;16.60;99.90;;;;;;5070935;28;20428;-63
2021/07/16 01:57:44;;;;;;;16.60;4.97;;;16.70;99.90;;;;;;5084860;28;20051;-63
2021/07/16 02:00:12;;;;;;;16.45;4.97;;;16.70;99.90;;;;;;5072121;28;20036;-63
2021/07/16 02:02:49;;;;;;;18.50;5.38;;;16.70;99.90;;;;;;5070942;28;20119;-63
2021/07/16 02:05:16;;;;;;;12.60;4.68;;;16.60;99.90;;;;;;5071885;28;20110;-63
2021/07/16 02:07:43;;;;;;;22.65;5.70;;;16.60;99.90;;;;;;5069649;28;20477;-63
2021/07/16 02:10:09;;;;;;;16.73;5.15;;;16.60;99.90;;;;;;5071601;28;20572;-63
2021/07/16 02:12:35;;;;;;;18.88;4.95;;;16.70;99.90;;;;;;5071986;28;20048;-63
2021/07/16 02:15:04;;;;;;;15.63;5.05;;;16.70;99.90;;;;;;5071740;28;20052;-63
2021/07/16 02:17:30;;;;;;;18.58;4.80;;;16.60;99.90;;;;;;5071523;28;20094;-63
2021/07/16 02:19:55;;;;;;;18.38;5.00;;;16.60;99.90;;;;;;5071996;28;20032;-63
2021/07/16 02:22:21;;;;;;;14.63;4.70;;;16.60;99.90;;;;;;5071645;28;20040;-63
2021/07/16 02:24:47;;;;;;;19.20;5.25;;;16.60;99.90;;;;;;5070566;28;20042;-63
2021/07/16 02:27:13;;;;;;;17.10;5.22;;;16.60;99.90;;;;;;5069701;28;20032;-63
2021/07/16 02:29:39;;;;;;;16.38;4.88;;;16.60;99.90;;;;;;5071615;28;20102;-63
2021/07/16 02:32:05;;;;;;;13.02;4.65;;;16.60;99.90;;;;;;5071876;28;20094;-63
2021/07/16 02:34:30;;;;;;;17.48;4.85;;;16.50;99.90;;;;;;5071760;28;20040;-63
2021/07/16 02:36:57;;;;;;;12.32;4.93;;;16.60;99.90;;;;;;5070370;28;20058;-63
2021/07/16 02:39:23;;;;;;;15.55;5.10;;;16.50;99.90;;;;;;5066538;28;20486;-63
2021/07/16 02:41:49;;;;;;;21.23;5.82;;;16.50;99.90;;;;;;5067556;28;20045;-63
2021/07/16 02:44:14;;;;;;;16.17;4.70;;;16.50;99.90;;;;;;5068333;28;20032;-63
2021/07/16 02:46:40;;;;;;;15.20;5.40;;;16.60;99.90;;;;;;5068721;28;20043;-63
2021/07/16 02:49:06;;;;;;;21.55;5.40;;;16.50;99.90;;;;;;5068790;28;20496;-63
2021/07/16 02:51:32;;;;;;;16.77;5.10;;;16.60;99.90;;;;;;5068121;28;20829;-63
2021/07/16 02:53:57;;;;;;;17.90;5.05;;;16.60;99.90;;;;;;5068879;28;20081;-63
2021/07/16 02:56:23;;;;;;;17.60;5.10;;;16.60;99.90;;;;;;5069602;28;20697;-63
2021/07/16 02:58:49;;;;;;;21.40;5.55;;;16.50;99.90;;;;;;5067200;28;20044;-63
2021/07/16 03:01:15;;;;;;;15.70;4.40;;;16.50;99.90;;;;;;5067831;28;20591;-63
2021/07/16 03:03:40;;;;;;;13.35;4.63;;;16.50;99.90;;;;;;5068386;28;20041;-63
2021/07/16 03:06:06;;;;;;;17.80;5.95;;;16.50;99.90;;;;;;5071142;28;20041;-63
2021/07/16 03:08:32;;;;;;;17.92;5.45;;;16.50;99.90;;;;;;5070387;28;20028;-63
2021/07/16 03:10:58;;;;;;;20.50;5.65;;;16.50;99.90;;;;;;5070682;28;20079;-63
2021/07/16 03:13:23;;;;;;;14.55;4.90;;;16.50;99.90;;;;;;5069271;28;20569;-63
2021/07/16 03:15:49;;;;;;;20.00;5.47;;;16.40;99.90;;;;;;5070747;28;20385;-63
2021/07/16 03:18:16;;;;;;;22.08;5.40;;;16.40;99.90;;;;;;5070075;28;20051;-63
2021/07/16 03:20:47;;;;;;;18.90;5.30;;;16.40;99.90;;;;;;5070341;28;20068;-63
2021/07/16 03:23:14;;;;;;;15.15;5.00;;;16.40;99.90;;;;;;5070731;28;20389;-63
2021/07/16 03:25:41;;;;;;;24.52;5.78;;;16.30;99.90;;;;;;5070801;28;20036;-63
2021/07/16 03:28:08;;;;;;;19.88;5.70;;;16.30;99.90;;;;;;5070495;28;20864;-63
2021/07/16 03:30:35;;;;;;;20.45;5.80;;;16.30;99.90;;;;;;5069312;28;20071;-63
2021/07/16 03:33:01;;;;;;;17.95;5.15;;;16.40;99.90;;;;;;5070198;28;20543;-63
2021/07/16 03:35:28;;;;;;;18.15;5.15;;;16.30;99.90;;;;;;5070541;28;20086;-63
2021/07/16 03:37:54;;;;;;;17.25;5.07;;;16.30;99.90;;;;;;5069358;28;20037;-63
2021/07/16 03:40:23;;;;;;;20.88;4.72;;;16.30;99.90;;;;;;5067368;28;20044;-63
2021/07/16 03:42:50;;;;;;;16.17;4.75;;;16.30;99.90;;;;;;5066796;28;20070;-63
2021/07/16 03:45:18;;;;;;;18.05;4.72;;;16.30;99.90;;;;;;5068431;28;20534;-63
2021/07/16 03:47:46;;;;;;;18.65;5.47;;;16.30;99.90;;;;;;5081272;28;20436;-63
2021/07/16 03:50:13;;;;;;;16.45;4.95;;;16.40;99.90;;;;;;5068946;28;20041;-63
2021/07/16 03:52:39;;;;;;;23.75;6.25;;;16.30;99.90;;;;;;5068009;28;20071;-63
2021/07/16 03:55:08;;;;;;;27.75;5.55;;;16.30;99.90;;;;;;5070664;28;20041;-63
2021/07/16 03:57:34;;;;;;;17.63;5.78;;;16.40;99.90;;;;;;5069743;28;20037;-63
2021/07/16 04:00:05;;;;;;;16.67;5.07;;;16.40;99.90;;;;;;5070559;28;20094;-63
2021/07/16 04:02:31;;;;;;;22.15;5.25;;;16.40;99.90;;;;;;5070342;28;20045;-63
2021/07/16 04:04:57;;;;;;;24.73;5.93;;;16.30;99.90;;;;;;5070467;28;20039;-63
2021/07/16 04:07:27;;;;;;;21.23;5.38;;;16.30;99.90;;;;;;5069344;28;20111;-63
2021/07/16 04:09:54;;;;;;;20.48;6.03;;;16.40;99.90;;;;;;5067861;28;20049;-63
2021/07/16 04:12:21;;;;;;;21.27;6.25;;;16.40;99.90;;;;;;5070464;28;20041;-63
2021/07/16 04:14:49;;;;;;;21.27;5.28;;;16.40;99.90;;;;;;5073379;28;20075;-63
2021/07/16 04:17:18;;;;;;;20.42;5.15;;;16.40;99.90;;;;;;5073768;28;20063;-63
2021/07/16 04:19:45;;;;;;;21.65;5.15;;;16.40;99.90;;;;;;5073119;28;20067;-63
2021/07/16 04:22:16;;;;;;;18.67;4.90;;;16.40;99.90;;;;;;5074251;28;20122;-63
2021/07/16 04:24:43;;;;;;;19.92;4.72;;;16.40;99.90;;;;;;5071992;28;20033;-63
2021/07/16 04:27:11;;;;;;;22.75;5.40;;;16.40;99.90;;;;;;5073846;28;20082;-63
2021/07/16 04:29:37;;;;;;;23.00;5.03;;;16.40;99.90;;;;;;5073527;28;20037;-63
2021/07/16 04:32:04;;;;;;;25.52;5.50;;;16.40;99.90;;;;;;5073332;28;20041;-63
2021/07/16 04:34:31;;;;;;;21.50;4.75;;;16.40;99.90;;;;;;5072774;28;20036;-63
2021/07/16 04:36:58;;;;;;;24.48;5.40;;;16.50;99.90;;;;;;5071308;28;20039;-63
2021/07/16 04:39:25;;;;;;;23.77;5.80;;;16.50;99.90;;;;;;5068918;28;20035;-63
2021/07/16 04:41:50;;;;;;;22.52;5.30;;;16.40;99.90;;;;;;5068899;28;20049;-63
2021/07/16 04:44:19;;;;;;;20.05;5.05;;;16.50;99.90;;;;;;5069735;28;20474;-63
2021/07/16 04:46:45;;;;;;;14.60;4.72;;;16.50;99.90;;;;;;5072798;28;20064;-63
2021/07/16 04:49:11;;;;;;;22.75;5.03;;;16.50;99.90;;;;;;5069171;28;20130;-63
2021/07/16 04:51:37;;;;;;;24.40;5.82;;;16.50;99.90;;;;;;5073129;28;20059;-63
2021/07/16 04:54:05;;;;;;;23.35;5.68;;;16.50;99.90;;;;;;5072653;28;20036;-63
2021/07/16 04:56:31;;;;;;;23.27;5.43;;;16.50;99.90;;;;;;5072658;28;20047;-63
2021/07/16 04:58:57;;;;;;;24.15;5.30;;;16.50;99.90;;;;;;5070594;28;20041;-63
2021/07/16 05:01:26;;;;;;;21.98;5.75;;;16.50;99.90;;;;;;5072885;28;20131;-63
2021/07/16 05:03:53;;;;;;;25.42;5.40;;;16.50;99.90;;;;;;5085948;28;20044;-63
2021/07/16 05:06:19;;;;;;;24.40;5.63;;;16.60;99.90;;;;;;5072149;28;20041;-63
2021/07/16 05:08:45;;;;;;;25.92;5.15;;;16.60;99.90;;;;;;5071804;28;20040;-63
2021/07/16 05:11:12;;;;;;;24.45;5.38;;;16.60;99.90;;;;;;5073060;28;20816;-63
2021/07/16 05:13:39;;;;;;;25.10;6.18;;;16.60;99.90;;;;;;5073234;28;20050;-63
2021/07/16 05:16:06;;;;;;;21.60;5.80;;;16.60;99.90;;;;;;5073276;28;20078;-63
2021/07/16 05:18:33;;;;;;;19.70;5.30;;;16.60;99.90;;;;;;5071047;28;20048;-63
2021/07/16 05:21:00;;;;;;;20.45;5.95;;;16.60;99.90;;;;;;5071241;28;20550;-63
2021/07/16 05:23:27;;;;;;;24.38;5.90;;;16.60;99.90;;;;;;5073324;28;20045;-63
2021/07/16 05:25:53;;;;;;;24.77;5.60;;;16.70;99.90;;;;;;5106353;22;20052;-62
2021/07/16 05:28:19;;;;;;;26.95;5.93;;;16.70;99.90;;;;;;5093001;28;20043;-62
2021/07/16 05:30:45;;;;;;;13.57;4.30;;;16.70;99.90;;;;;;5092998;28;20040;-61
2021/07/16 05:33:11;;;;;;;21.77;5.00;;;16.80;99.90;;;;;;5089075;28;20040;-62
2021/07/16 05:35:37;;;;;;;22.90;5.25;;;17.00;99.90;;;;;;5090215;28;20024;-62
2021/07/16 05:38:03;;;;;;;21.98;5.43;;;17.10;99.90;;;;;;5087147;28;20051;-61
2021/07/16 05:40:29;;;;;;;19.58;5.38;;;17.20;99.90;;;;;;5089415;28;20488;-61
2021/07/16 05:42:55;;;;;;;19.17;4.90;;;17.20;99.90;;;;;;5091669;28;20061;-61
2021/07/16 05:45:26;;;;;;;28.90;6.40;;;17.20;99.90;;;;;;5090079;28;20044;-62
2021/07/16 05:47:52;;;;;;;22.73;6.07;;;17.10;99.90;;;;;;5094975;28;20035;-61
2021/07/16 05:50:17;;;;;;;24.95;5.50;;;17.10;99.90;;;;;;5090859;28;20051;-61
2021/07/16 05:52:43;;;;;;;20.80;5.95;;;17.00;99.90;;;;;;5092793;28;20052;-61
2021/07/16 05:55:10;;;;;;;20.88;5.10;;;17.10;99.90;;;;;;5092676;28;20086;-61
2021/07/16 05:57:35;;;;;;;25.80;6.65;;;17.00;99.90;;;;;;5092796;28;20064;-61
2021/07/16 06:00:03;;;;;;;24.20;5.43;;;17.10;99.90;;;;;;5087027;28;20044;-61
2021/07/16 06:02:29;;;;;;;31.90;5.97;;;17.00;99.90;;;;;;5098998;28;20040;-62
2021/07/16 06:04:55;;;;;;;26.48;6.00;;;17.00;99.90;;;;;;5095037;28;20046;-61
2021/07/16 06:07:21;;;;;;;23.33;5.03;;;16.90;99.90;;;;;;5091662;28;20070;-61
2021/07/16 06:09:47;;;;;;;22.48;5.03;;;16.90;99.90;;;;;;5090864;28;20103;-61
2021/07/16 06:12:12;;;;;;;27.08;6.28;;;16.90;99.90;;;;;;5090889;28;20172;-61
2021/07/16 06:14:38;;;;;;;25.73;6.45;;;17.00;99.90;;;;;;5092587;28;20047;-61
2021/07/16 06:17:04;;;;;;;24.95;6.05;;;17.00;99.90;;;;;;5090999;28;20487;-61
2021/07/16 06:19:30;;;;;;;24.80;6.10;;;17.00;99.90;;;;;;5089322;28;20036;-61
2021/07/16 06:21:56;;;;;;;24.42;5.70;;;17.00;99.90;;;;;;5091504;28;20048;-61
2021/07/16 06:24:23;;;;;;;20.98;5.22;;;17.00;99.90;;;;;;5089284;28;20589;-61
2021/07/16 06:26:48;;;;;;;22.48;5.95;;;17.10;99.90;;;;;;5091035;28;20040;-61
2021/07/16 06:29:14;;;;;;;23.85;6.07;;;17.10;99.90;;;;;;5090622;28;20446;-62
2021/07/16 06:31:40;;;;;;;24.85;5.82;;;17.10;99.90;;;;;;5091467;28;20047;-62
2021/07/16 06:34:05;;;;;;;23.65;5.93;;;17.20;99.90;;;;;;5089375;28;20542;-62
2021/07/16 06:36:31;;;;;;;28.83;5.97;;;17.20;99.90;;;;;;5090514;28;20040;-62
2021/07/16 06:38:57;;;;;;;21.48;5.32;;;17.20;99.90;;;;;;5091248;28;20036;-62
2021/07/16 06:41:23;;;;;;;21.42;6.22;;;17.10;99.90;;;;;;5089920;28;20039;-62
2021/07/16 06:43:48;;;;;;;25.70;5.53;;;17.20;99.90;;;;;;5074798;28;20098;-62
2021/07/16 06:46:14;;;;;;;19.35;5.13;;;17.30;99.90;;;;;;5071200;28;20047;-62
2021/07/16 06:48:43;;;;;;;22.42;5.60;;;17.40;99.90;;;;;;5090505;28;20040;-62
2021/07/16 06:51:09;;;;;;;22.98;6.10;;;17.40;99.90;;;;;;5090901;28;20044;-63
2021/07/16 06:53:35;;;;;;;29.35;6.28;;;17.40;99.90;;;;;;5073224;28;20504;-62
2021/07/16 06:56:02;;;;;;;22.88;5.53;;;17.40;99.90;;;;;;5086139;28;20461;-62
2021/07/16 06:58:28;;;;;;;24.95;5.25;;;17.40;99.90;;;;;;5075469;28;20655;-62
2021/07/16 07:00:54;;;;;;;24.85;5.97;;;17.30;99.90;;;;;;5072165;28;20036;-62
2021/07/16 07:03:25;;;;;;;27.33;6.10;;;17.40;99.90;;;;;;5090012;28;20105;-62
2021/07/16 07:05:52;;;;;;;29.70;5.97;;;17.40;99.90;;;;;;5081338;28;20123;-62
2021/07/16 07:08:18;;;;;;;25.83;6.20;;;17.40;99.90;;;;;;5091235;28;20069;-62
2021/07/16 07:10:43;;;;;;;25.42;6.40;;;17.40;99.90;;;;;;5091582;28;20036;-62
2021/07/16 07:13:09;;;;;;;25.52;5.82;;;17.40;99.90;;;;;;5091518;28;20044;-62
2021/07/16 07:15:36;;;;;;;25.10;5.53;;;17.40;99.90;;;;;;5090725;28;20436;-62
2021/07/16 07:18:03;;;;;;;28.48;6.43;;;17.40;99.90;;;;;;5076170;28;20051;-63
2021/07/16 07:20:30;;;;;;;26.98;6.13;;;17.40;99.90;;;;;;5081220;28;20040;-62
2021/07/16 07:22:57;;;;;;;28.27;5.75;;;17.40;99.90;;;;;;5078842;28;20495;-62
2021/07/16 07:25:22;;;;;;;26.33;5.75;;;17.50;99.90;;;;;;5087529;28;20138;-62
2021/07/16 07:27:48;;;;;;;22.75;5.95;;;17.60;99.90;;;;;;5070840;28;20436;-62
2021/07/16 07:30:14;;;;;;;22.55;6.03;;;17.60;99.90;;;;;;5085178;28;20044;-62
2021/07/16 07:32:40;;;;;;;21.20;5.18;;;17.70;99.90;;;;;;5073357;28;20040;-62
2021/07/16 07:35:07;;;;;;;24.50;5.90;;;17.70;99.90;;;;;;5083432;28;20039;-62
2021/07/16 07:37:33;;;;;;;19.65;5.25;;;17.70;99.90;;;;;;5071330;28;20557;-62
2021/07/16 07:40:01;;;;;;;25.60;5.68;;;17.80;99.90;;;;;;5074773;28;20029;-62
2021/07/16 07:42:27;;;;;;;26.48;5.72;;;17.80;99.90;;;;;;5070602;28;20128;-62
2021/07/16 07:44:54;;;;;;;24.80;5.05;;;17.80;99.90;;;;;;5071846;28;20115;-62
2021/07/16 07:47:20;;;;;;;24.88;5.15;;;17.90;99.90;;;;;;5090689;28;20040;-62
2021/07/16 07:49:47;;;;;;;20.75;5.70;;;18.00;99.90;;;;;;5077261;28;20060;-62
2021/07/16 07:52:13;;;;;;;24.42;5.95;;;18.10;99.90;;;;;;5085729;28;20051;-62
2021/07/16 07:54:39;;;;;;;29.45;6.38;;;18.10;99.90;;;;;;5092239;28;20373;-62
2021/07/16 07:57:05;;;;;;;22.20;5.30;;;18.10;99.90;;;;;;5094061;28;20108;-63
2021/07/16 07:59:31;;;;;;;24.60;5.18;;;18.20;99.90;;;;;;5074260;28;20112;-62
2021/07/16 08:01:57;;;;;;;22.73;5.65;;;18.30;99.90;;;;;;5074360;28;20446;-62
2021/07/16 08:04:23;;;;;;;26.55;6.00;;;18.30;99.90;;;;;;5074763;28;20052;-62
2021/07/16 08:06:49;;;;;;;23.98;5.70;;;18.30;99.90;;;;;;5081060;28;20122;-62
2021/07/16 08:09:15;;;;;;;24.45;6.25;;;18.30;99.90;;;;;;5085227;28;20401;-62
2021/07/16 08:11:42;;;;;;;29.25;6.65;;;18.40;99.90;;;;;;5088322;28;20038;-62
2021/07/16 08:14:08;;;;;;;17.63;4.97;;;18.50;99.90;;;;;;5084330;28;20123;-62
2021/07/16 08:16:34;;;;;;;28.88;6.18;;;18.60;99.90;;;;;;5077005;28;20097;-62
2021/07/16 08:19:00;;;;;;;25.20;6.40;;;18.60;99.90;;;;;;5097044;28;20076;-62
2021/07/16 08:21:26;;;;;;;26.40;5.22;;;18.60;99.90;;;;;;5100206;28;20036;-62
2021/07/16 08:23:52;;;;;;;27.33;5.68;;;18.70;99.90;;;;;;5096545;28;20533;-62
2021/07/16 08:26:19;;;;;;;21.65;5.57;;;18.70;99.90;;;;;;5093192;28;20055;-62
2021/07/16 08:28:45;;;;;;;21.08;5.70;;;18.80;99.90;;;;;;5093538;28;20085;-62
2021/07/16 08:31:11;;;;;;;25.08;5.75;;;18.80;99.90;;;;;;5094483;28;20040;-62
2021/07/16 08:33:37;;;;;;;26.85;6.30;;;18.80;99.90;;;;;;5094259;28;20040;-62
2021/07/16 08:36:03;;;;;;;19.90;4.97;;;18.70;99.90;;;;;;5093460;28;20047;-62
2021/07/16 08:38:29;;;;;;;24.70;5.88;;;18.70;99.90;;;;;;5084948;28;20048;-62
2021/07/16 08:40:55;;;;;;;24.02;5.55;;;18.80;99.90;;;;;;5072942;28;20041;-62
2021/07/16 08:43:23;;;;;;;26.27;5.53;;;18.80;99.90;;;;;;5073749;28;20045;-62
2021/07/16 08:45:51;;;;;;;20.48;5.63;;;18.90;99.90;;;;;;5089001;28;20063;-63
2021/07/16 08:48:16;;;;;;;26.10;6.25;;;19.00;99.90;;;;;;5092635;28;20040;-62
2021/07/16 08:50:42;;;;;;;22.90;5.70;;;19.10;99.90;;;;;;5094016;28;20043;-62
2021/07/16 08:53:11;;;;;;;24.23;6.28;;;19.20;99.90;;;;;;5088693;28;20043;-63
2021/07/16 08:55:37;;;;;;;23.27;5.55;;;19.20;99.90;;;;;;5086655;28;20040;-62
2021/07/16 08:58:04;;;;;;;26.77;6.35;;;19.30;99.90;;;;;;5092587;28;20036;-62
2021/07/16 09:00:30;;;;;;;27.88;6.63;;;19.20;99.90;;;;;;5093234;28;20043;-62
2021/07/16 09:02:59;;;;;;;25.17;6.25;;;19.00;99.90;;;;;;5093209;28;20700;-62
2021/07/16 09:05:37;;;;;;;24.35;6.05;;;19.10;99.90;;;;;;5093683;28;20044;-62
2021/07/16 09:08:13;;;;;;;24.38;6.20;;;19.20;99.90;;;;;;5090742;28;20123;-62
2021/07/16 09:10:50;;;;;;;21.55;6.57;;;19.20;99.90;;;;;;5073634;28;20042;-62
2021/07/16 09:13:18;;;;;;;22.58;6.65;;;19.30;99.90;;;;;;5076475;28;20036;-62
2021/07/16 09:15:51;;;;;;;21.52;5.88;;;19.30;99.90;;;;;;5091463;28;20067;-63
2021/07/16 09:18:25;;;;;;;26.45;5.80;;;19.40;99.90;;;;;;5080736;28;20039;-63
2021/07/16 09:21:07;;;;;;;21.58;5.13;;;19.50;99.90;;;;;;5085215;28;20339;-63
2021/07/16 09:23:44;;;;;;;20.27;5.22;;;19.30;99.90;;;;;;5072951;28;20677;-62
2021/07/16 09:26:12;;;;;;;19.20;5.65;;;19.50;99.90;;;;;;5073005;28;20172;-62
2021/07/16 09:28:40;;;;;;;27.17;6.68;;;19.60;99.90;;;;;;5073002;28;20642;-64
2021/07/16 09:31:18;;;;;;;23.17;5.57;;;19.60;99.90;;;;;;5072109;28;20047;-64
2021/07/16 09:33:49;;;;;;;18.90;5.22;;;19.60;99.90;;;;;;5072968;28;20040;-62
2021/07/16 09:36:23;;;;;;;20.80;5.50;;;19.80;99.90;;;;;;5088591;28;20154;-63
2021/07/16 09:38:54;;;;;;;28.15;6.65;;;19.90;99.90;;;;;;5072766;28;20272;-63
2021/07/16 09:41:20;;;;;;;22.60;6.30;;;19.90;99.90;;;;;;5072594;28;20047;-63
2021/07/16 09:43:50;;;;;;;22.60;5.55;;;19.90;99.90;;;;;;5072711;28;20044;-63
2021/07/16 09:46:16;;;;;;;20.48;5.55;;;19.90;99.90;;;;;;5080253;28;20040;-63
2021/07/16 09:48:43;;;;;;;21.48;6.00;;;19.90;99.90;;;;;;5085583;28;20089;-62
2021/07/16 09:51:23;;;;;;;22.38;6.05;;;19.80;99.90;;;;;;5088684;28;20110;-62
2021/07/16 09:54:00;;;;;;;24.33;5.97;;;19.90;99.90;;;;;;5085698;28;20040;-63
2021/07/16 09:56:36;;;;;;;25.40;6.65;;;19.90;99.90;;;;;;5075728;28;20389;-62
2021/07/16 09:59:08;;;;;;;22.67;5.65;;;19.90;99.90;;;;;;5074300;28;20048;-63
2021/07/16 10:01:35;;;;;;;;;;;20.00;99.90;;;;;;5087786;28;20096;-62
2021/07/16 10:04:01;;;;;;;23.50;5.78;;;19.70;99.90;;;;;;5077180;28;19921;-62
2021/07/16 10:06:29;;;;;;;22.55;6.28;;;19.90;99.90;;;;;;5070795;28;20118;-63
2021/07/16 10:08:56;;;;;;;27.50;6.20;;;20.00;99.90;;;;;;5086290;28;20036;-63
2021/07/16 10:11:28;;;;;;;20.52;5.50;;;20.00;99.90;;;;;;5087324;28;20052;-62
2021/07/16 10:13:55;;;;;;;18.02;5.63;;;19.80;99.90;;;;;;5085831;28;20040;-63
2021/07/16 10:16:21;;;;;;;22.05;6.53;;;19.90;99.90;;;;;;5078061;28;20121;-63
2021/07/16 10:18:48;;;;;;;21.65;6.43;;;19.90;99.90;;;;;;5090123;28;20071;-62
2021/07/16 10:21:15;;;;;;;22.30;5.60;;;19.90;99.90;;;;;;5085710;28;20032;-62
2021/07/16 10:23:40;;;;;;;21.85;5.90;;;19.90;99.90;;;;;;5088331;28;20485;-62
2021/07/16 10:26:11;;;;;;;21.55;6.07;;;20.00;99.90;;;;;;5089312;28;20052;-62
2021/07/16 10:28:41;;;;;;;27.08;6.25;;;20.00;99.90;;;;;;5091885;28;20047;-62
2021/07/16 10:31:29;;;;;;;27.45;6.38;;;19.90;99.90;;;;;;5102454;28;20066;-62
2021/07/16 10:33:56;;;;;;;19.90;6.57;;;20.00;99.90;;;;;;5078546;28;20123;-62
2021/07/16 10:36:37;;;;;;;21.92;6.00;;;19.90;99.90;;;;;;5071794;28;20098;-62
2021/07/16 10:39:08;;;;;;;25.67;6.13;;;20.00;99.90;;;;;;5094851;28;20028;-62
2021/07/16 10:41:37;;;;;;;24.63;6.47;;;20.00;99.90;;;;;;5083000;28;20097;-62
2021/07/16 10:44:07;;;;;;;21.65;6.25;;;20.00;99.90;;;;;;5072681;28;20041;-62
2021/07/16 10:46:35;;;;;;;21.08;6.00;;;20.10;99.90;;;;;;5071621;28;20432;-63
2021/07/16 10:49:04;;;;;;;19.95;6.18;;;20.10;99.90;;;;;;5083364;28;20532;-63
2021/07/16 10:51:31;;;;;;;25.65;7.18;;;20.10;99.90;;;;;;5091811;28;20040;-62
2021/07/16 10:53:59;;;;;;;18.17;6.25;;;20.20;99.90;;;;;;5090237;28;20040;-62
2021/07/16 10:56:43;;;;;;;20.83;6.18;;;20.30;99.90;;;;;;5090777;28;20035;-63
2021/07/16 10:59:10;;;;;;;22.17;6.68;;;20.30;99.90;;;;;;5091086;28;20032;-62
2021/07/16 11:01:39;;;;;;;21.13;6.25;;;20.30;99.90;;;;;;5092769;28;20040;-63
2021/07/16 11:04:07;;;;;;;23.25;6.88;;;20.50;99.90;;;;;;5090589;28;20044;-63
2021/07/16 11:06:54;;;;;;;24.00;6.95;;;20.60;99.90;;;;;;5081091;28;20048;-62
2021/07/16 11:09:46;;;;;;;21.27;6.25;;;20.70;99.90;;;;;;5077450;28;20044;-62
2021/07/16 11:12:35;;;;;;;19.50;5.97;;;20.80;99.90;;;;;;5090963;28;20040;-62
2021/07/16 11:15:02;;;;;;;21.42;5.97;;;21.00;99.90;;;;;;5073922;28;20078;-62
2021/07/16 11:17:31;;;;;;;22.98;6.40;;;20.80;99.90;;;;;;5070854;28;20102;-62
2021/07/16 11:20:30;;;;;;;20.40;6.47;;;20.90;99.90;;;;;;5085822;28;20032;-62
2021/07/16 11:22:59;;;;;;;23.58;6.00;;;21.00;99.90;;;;;;5031805;28;20052;-63
2021/07/16 11:25:26;;;;;;;20.20;6.13;;;20.90;99.90;;;;;;5071004;28;20056;-62
2021/07/16 11:27:51;;;;;;;25.88;6.40;;;20.80;99.90;;;;;;5070964;28;20792;-62
2021/07/16 11:30:17;;;;;;;24.42;6.45;;;20.80;99.90;;;;;;5072765;28;20035;-63
2021/07/16 11:32:43;;;;;;;25.60;7.05;;;20.80;99.90;;;;;;5093252;28;20047;-63
2021/07/16 11:35:12;;;;;;;26.48;7.22;;;20.80;99.90;;;;;;5083589;28;20044;-62
2021/07/16 11:37:49;;;;;;;18.40;5.72;;;20.70;99.90;;;;;;5077846;28;20428;-62
2021/07/16 11:40:26;;;;;;;27.83;6.32;;;20.50;99.90;;;;;;5076121;28;20033;-63
2021/07/16 11:42:55;;;;;;;20.95;6.22;;;20.50;99.90;;;;;;5088790;28;20089;-62
2021/07/16 11:45:36;;;;;;;21.30;6.88;;;20.50;99.90;;;;;;5083960;28;20040;-62
2021/07/16 11:48:31;;;;;;;26.85;6.53;;;20.60;99.90;;;;;;5078019;28;20044;-62
2021/07/16 11:51:06;;;;;;;24.05;6.90;;;20.70;99.90;;;;;;5063566;28;20398;-63
2021/07/16 11:53:32;;;;;;;28.25;7.25;;;20.80;99.90;;;;;;5085313;28;20050;-62
2021/07/16 11:56:11;;;;;;;23.38;7.00;;;20.60;99.90;;;;;;5089575;28;20040;-62
2021/07/16 11:58:48;;;;;;;23.70;6.50;;;20.80;99.90;;;;;;5083347;28;20034;-62
2021/07/16 12:01:13;;;;;;;27.33;7.18;;;20.90;99.90;;;;;;5088757;28;20481;-62
2021/07/16 12:03:39;;;;;;;25.30;6.90;;;21.00;99.90;;;;;;5081907;28;20118;-63
2021/07/16 12:06:06;;;;;;;25.30;6.30;;;20.90;99.90;;;;;;5087312;28;20032;-62
2021/07/16 12:08:34;;;;;;;32.33;8.05;;;21.00;99.90;;;;;;5098610;28;20047;-62
2021/07/16 12:11:08;;;;;;;22.17;7.10;;;21.20;99.90;;;;;;5076546;28;20036;-63
2021/07/16 12:13:35;;;;;;;24.67;6.97;;;21.00;99.90;;;;;;5084179;28;20060;-62
2021/07/16 12:16:06;;;;;;;21.15;7.47;;;21.20;99.90;;;;;;5069984;28;20094;-63
2021/07/16 12:18:32;;;;;;;23.73;8.02;;;21.00;99.90;;;;;;5070988;28;20482;-62
2021/07/16 12:21:10;;;;;;;19.05;6.38;;;21.00;99.90;;;;;;5085507;28;20056;-62
2021/07/16 12:23:36;;;;;;;20.20;6.63;;;21.00;99.90;;;;;;5082052;28;20497;-62
2021/07/16 12:26:11;;;;;;;22.38;7.13;;;21.20;99.90;;;;;;5088735;28;20533;-62
2021/07/16 12:28:37;;;;;;;28.55;7.80;;;21.30;99.90;;;;;;5083250;28;20608;-62
2021/07/16 12:31:03;;;;;;;23.33;6.50;;;21.50;99.90;;;;;;5090185;28;20040;-62
2021/07/16 12:33:35;;;;;;;24.92;7.05;;;21.40;99.90;;;;;;5088451;28;20047;-63
2021/07/16 12:36:01;;;;;;;20.58;7.20;;;21.50;99.90;;;;;;5093406;28;20381;-62
2021/07/16 12:38:31;;;;;;;27.15;7.28;;;21.60;99.90;;;;;;5090120;28;20075;-63
2021/07/16 12:41:09;;;;;;;22.55;6.78;;;21.70;99.90;;;;;;5092726;28;20044;-62
2021/07/16 12:43:39;;;;;;;21.92;6.57;;;21.90;99.90;;;;;;5085205;28;20050;-62